Custer, SD (57730)

6:57 AM MDT on April 28, 2017 (GMT -0600)
Pacer Subdivision | | Change Station
Active Advisory: Winter Weather Advisory

Elev 5558 ft 43.73 °N, 103.60 °W | Updated 15 seconds ago

Light Snow
Light Snow Freezing Fog
28.1 °F
Feels Like 28 °F
N
3.0
Wind Variable Wind from East
Gusts 9.0 mph

Today
High -- | Low -- °F
--% Chance of Precip.
Yesterday
High -- | Low -- °F
Precip. -- in
Pressure 29.80 in
Visibility 0.5 miles
Clouds Scattered Clouds 600 ft
Overcast 1100 ft
Windchill 28 °F
Dew Point 26 °F
Humidity 93%
Rainfall 0.00 in
Snow Depth Not available.
5:50 AM 7:54 PM
Waxing Crescent, 6% visible
METAR KCUT 281253Z AUTO 07018G24KT 1/2SM -SN FZFG SCT006 OVC011 M02/M04 A2974 RMK AO2 PK WND 07027/1241 SLP089 P0003 T10171039
Pressure 29.80 in
Visibility 0.5 miles
Clouds Scattered Clouds 600 ft
Overcast 1100 ft
Windchill 28 °F
Dew Point 26 °F
Humidity 93%
Rainfall 0.00 in
Snow Depth Not available.
5:50 AM 7:54 PM
Waxing Crescent, 6% visible
METAR KCUT 281253Z AUTO 07018G24KT 1/2SM -SN FZFG SCT006 OVC011 M02/M04 A2974 RMK AO2 PK WND 07027/1241 SLP089 P0003 T10171039

Get Your Daily Forecast Email!

Thanks for signing up!

Be on the lookout for a verification email in your inbox.

You'll start receiving severe weather alerts in your inbox..

×

10-Day Weather Forecast

Almanac

Astronomy

Apr. 28, 2017 Rise Set
Actual Time
Civil Twilight
Nautical Twilight
Astronomical Twilight
Moon
Length of Visible Light
Length of Day
Tomorrow will be .
, % of the Moon is Illuminated

Today's Extremes

State Highs State Lows

Community

WunderPhotos

WunderBlog® & News

Nearby

Air Quality

  Air Quality AQ Index Pollutant
Not available.

Snow Depth

Station Depth Elevation

Earthquake Activity

City Distance Mag. Time & Date
Minimum magnitude displayed is 2.5.

Coastal Water Temperatures

Place Temperature

Stations

Nearby Weather Stations

Station Location Temp. Windchill Dew Point Humidity Wind Precip. Elev Updated Type
                   

Watches & Warnings

Winter Weather Advisory
Issued: 3:45 AM MDT Apr. 28, 2017 – National Weather Service

... Winter Weather Advisory remains in effect until 6 PM MDT this
evening...

* timing... snow, light to moderate at times, will continue through
at least early afternoon, then begin to taper off later in the
afternoon.

* Main impact... snowfall totals of 2 to 6 inches are expected.
The heaviest snowfall totals will generally be found across
western portions of Fall River County.

* Other impacts... visibilities will be reduced to near a quarter
mile in the heavier snow. With many trees beginning to Leaf
out, the heavy wet snow could bring down some tree limbs.

Precautionary/preparedness actions...

A Winter Weather Advisory for snow means snow accumulation will
create hazardous conditions. Use caution when traveling.